Voinjama Airport

Jump to: basic info | weather | comments

Related pages: nearby airports | nearby navaids | notams | map

Basic information (top)

Codes: VOI GLVA
Location: lon 8.400000, lat -9.767000, elev 1,400 ft / 427 m msl
Status: small_airport
Scheduled airline service: no
Links: Wikipedia Mobile

Weather (top)

Current conditions for Nzerekore Airport 73nm (135km) ESE (rec'd 2014/10/06 09:00Z):

GUNZ 060900Z 00000KT 9999 BKN015 BKN110 24/22 Q1014 NOSIG

Airport forecast for Lungi International Airport 204nm (378km) W (rec'd 2014/10/22 18:00Z):

TAF GFLL 221600Z 2218/2224 24010KT 9999 BKN014 SCT014 FEW027CB PROB30 
      TEMPO 2220/2304 12004KT 7000 TS/TSRA BKN010 FEW026CB 
      BECMG 2305/2307 12004KT 4000 BR BKN009 
      TEMPO 2308/2314 27010KT 8000 TSRA BKN010 FM1?500 26008KT 9999 BKN012 FEW027CB

Latest comments (top)

No comments yet for Voinjama Airport

More... (top)

See also NOTAMs and nearby airports and navaids, or visit the Voinjama Airport page at the main OurAirports website..